sensor_id;sensor_type;location;lat;lon;timestamp;P1;durP1;ratioP1;P2;durP2;ratioP2
65037;SDS011;51605;47.040;15.294;2022-09-20T00:00:18;1.58;;;1.15;;
65037;SDS011;51605;47.040;15.294;2022-09-20T00:02:44;1.30;;;0.80;;
65037;SDS011;51605;47.040;15.294;2022-09-20T00:05:10;1.60;;;0.80;;
65037;SDS011;51605;47.040;15.294;2022-09-20T00:07:35;1.05;;;0.80;;
65037;SDS011;51605;47.040;15.294;2022-09-20T00:10:01;0.85;;;0.80;;
65037;SDS011;51605;47.040;15.294;2022-09-20T00:12:27;1.63;;;1.00;;
65037;SDS011;51605;47.040;15.294;2022-09-20T00:14:52;1.77;;;0.82;;
65037;SDS011;51605;47.040;15.294;2022-09-20T00:17:18;0.80;;;0.80;;
65037;SDS011;51605;47.040;15.294;2022-09-20T00:19:43;1.55;;;0.90;;
65037;SDS011;51605;47.040;15.294;2022-09-20T00:22:09;1.13;;;0.80;;
65037;SDS011;51605;47.040;15.294;2022-09-20T00:24:35;0.83;;;0.80;;
65037;SDS011;51605;47.040;15.294;2022-09-20T00:27:01;0.80;;;0.70;;
65037;SDS011;51605;47.040;15.294;2022-09-20T00:29:27;2.35;;;0.80;;
65037;SDS011;51605;47.040;15.294;2022-09-20T00:31:53;1.17;;;0.80;;
65037;SDS011;51605;47.040;15.294;2022-09-20T00:34:18;1.20;;;0.80;;
65037;SDS011;51605;47.040;15.294;2022-09-20T00:37:03;1.27;;;0.80;;
65037;SDS011;51605;47.040;15.294;2022-09-20T00:39:28;2.30;;;0.90;;
65037;SDS011;51605;47.040;15.294;2022-09-20T00:41:55;1.15;;;0.80;;
65037;SDS011;51605;47.040;15.294;2022-09-20T00:47:54;1.25;;;0.88;;
65037;SDS011;51605;47.040;15.294;2022-09-20T00:50:46;2.28;;;0.77;;
65037;SDS011;51605;47.040;15.294;2022-09-20T00:53:21;1.90;;;0.80;;
65037;SDS011;51605;47.040;15.294;2022-09-20T00:58:24;0.65;;;0.65;;
65037;SDS011;51605;47.040;15.294;2022-09-20T01:00:53;1.27;;;0.73;;
65037;SDS011;51605;47.040;15.294;2022-09-20T01:03:20;2.88;;;0.80;;
65037;SDS011;51605;47.040;15.294;2022-09-20T01:05:49;0.68;;;0.68;;
65037;SDS011;51605;47.040;15.294;2022-09-20T01:08:16;1.33;;;0.90;;
65037;SDS011;51605;47.040;15.294;2022-09-20T01:10:42;0.70;;;0.70;;
65037;SDS011;51605;47.040;15.294;2022-09-20T01:13:08;1.50;;;0.80;;
65037;SDS011;51605;47.040;15.294;2022-09-20T01:15:35;1.00;;;0.80;;
65037;SDS011;51605;47.040;15.294;2022-09-20T01:18:02;2.15;;;0.80;;
65037;SDS011;51605;47.040;15.294;2022-09-20T01:20:32;1.15;;;0.80;;
65037;SDS011;51605;47.040;15.294;2022-09-20T01:28:37;0.75;;;0.75;;
65037;SDS011;51605;47.040;15.294;2022-09-20T01:36:24;1.38;;;0.90;;
65037;SDS011;51605;47.040;15.294;2022-09-20T01:41:32;0.80;;;0.80;;
65037;SDS011;51605;47.040;15.294;2022-09-20T01:46:41;0.80;;;0.80;;
65037;SDS011;51605;47.040;15.294;2022-09-20T02:11:17;1.35;;;0.88;;
65037;SDS011;51605;47.040;15.294;2022-09-20T02:33:44;0.55;;;0.52;;
65037;SDS011;51605;47.040;15.294;2022-09-20T02:36:09;0.88;;;0.80;;
65037;SDS011;51605;47.040;15.294;2022-09-20T02:46:54;0.80;;;0.70;;
65037;SDS011;51605;47.040;15.294;2022-09-20T02:52:24;1.17;;;0.80;;
65037;SDS011;51605;47.040;15.294;2022-09-20T02:55:06;0.60;;;0.60;;
65037;SDS011;51605;47.040;15.294;2022-09-20T03:00:24;0.95;;;0.75;;
65037;SDS011;51605;47.040;15.294;2022-09-20T03:03:07;1.30;;;0.68;;
65037;SDS011;51605;47.040;15.294;2022-09-20T03:08:38;0.52;;;0.50;;
65037;SDS011;51605;47.040;15.294;2022-09-20T03:14:10;1.00;;;0.80;;
65037;SDS011;51605;47.040;15.294;2022-09-20T03:25:32;0.60;;;0.60;;
65037;SDS011;51605;47.040;15.294;2022-09-20T03:28:38;1.67;;;0.70;;
65037;SDS011;51605;47.040;15.294;2022-09-20T03:37:31;0.73;;;0.70;;
65037;SDS011;51605;47.040;15.294;2022-09-20T03:42:50;1.02;;;0.80;;
65037;SDS011;51605;47.040;15.294;2022-09-20T03:48:11;0.70;;;0.60;;
65037;SDS011;51605;47.040;15.294;2022-09-20T04:08:03;1.35;;;0.85;;
65037;SDS011;51605;47.040;15.294;2022-09-20T04:11:08;1.00;;;0.70;;
65037;SDS011;51605;47.040;15.294;2022-09-20T04:24:04;0.70;;;0.70;;
65037;SDS011;51605;47.040;15.294;2022-09-20T04:26:46;0.80;;;0.77;;
65037;SDS011;51605;47.040;15.294;2022-09-20T04:29:46;0.80;;;0.70;;
65037;SDS011;51605;47.040;15.294;2022-09-20T04:32:28;1.75;;;0.70;;
65037;SDS011;51605;47.040;15.294;2022-09-20T04:38:21;0.60;;;0.60;;
65037;SDS011;51605;47.040;15.294;2022-09-20T04:40:57;0.75;;;0.68;;
65037;SDS011;51605;47.040;15.294;2022-09-20T04:54:32;0.93;;;0.55;;
65037;SDS011;51605;47.040;15.294;2022-09-20T05:00:13;1.08;;;0.70;;
65037;SDS011;51605;47.040;15.294;2022-09-20T05:16:39;0.90;;;0.70;;
65037;SDS011;51605;47.040;15.294;2022-09-20T05:19:30;0.77;;;0.70;;
65037;SDS011;51605;47.040;15.294;2022-09-20T05:24:45;2.03;;;0.90;;
65037;SDS011;51605;47.040;15.294;2022-09-20T05:27:51;0.90;;;0.60;;
65037;SDS011;51605;47.040;15.294;2022-09-20T05:30:30;1.15;;;0.80;;
65037;SDS011;51605;47.040;15.294;2022-09-20T05:39:10;0.95;;;0.77;;
65037;SDS011;51605;47.040;15.294;2022-09-20T05:56:33;1.33;;;0.70;;
65037;SDS011;51605;47.040;15.294;2022-09-20T06:02:22;0.77;;;0.73;;
65037;SDS011;51605;47.040;15.294;2022-09-20T06:08:20;2.28;;;0.70;;
65037;SDS011;51605;47.040;15.294;2022-09-20T06:19:39;0.95;;;0.70;;
65037;SDS011;51605;47.040;15.294;2022-09-20T06:27:26;1.27;;;0.73;;
65037;SDS011;51605;47.040;15.294;2022-09-20T06:30:16;1.50;;;0.70;;
65037;SDS011;51605;47.040;15.294;2022-09-20T06:35:45;0.65;;;0.65;;
65037;SDS011;51605;47.040;15.294;2022-09-20T06:41:40;0.93;;;0.73;;
65037;SDS011;51605;47.040;15.294;2022-09-20T06:44:06;1.17;;;0.75;;
65037;SDS011;51605;47.040;15.294;2022-09-20T06:46:33;0.82;;;0.65;;
65037;SDS011;51605;47.040;15.294;2022-09-20T06:49:00;0.80;;;0.63;;
65037;SDS011;51605;47.040;15.294;2022-09-20T06:51:27;1.17;;;0.75;;
65037;SDS011;51605;47.040;15.294;2022-09-20T06:53:57;1.10;;;0.90;;
65037;SDS011;51605;47.040;15.294;2022-09-20T06:56:24;1.10;;;0.70;;
65037;SDS011;51605;47.040;15.294;2022-09-20T06:58:53;1.75;;;0.90;;
65037;SDS011;51605;47.040;15.294;2022-09-20T07:01:19;1.30;;;0.77;;
65037;SDS011;51605;47.040;15.294;2022-09-20T07:03:45;1.45;;;0.77;;
65037;SDS011;51605;47.040;15.294;2022-09-20T07:06:11;1.40;;;0.80;;
65037;SDS011;51605;47.040;15.294;2022-09-20T07:08:40;1.20;;;0.80;;
65037;SDS011;51605;47.040;15.294;2022-09-20T07:11:08;2.85;;;0.90;;
65037;SDS011;51605;47.040;15.294;2022-09-20T07:13:36;1.17;;;0.80;;
65037;SDS011;51605;47.040;15.294;2022-09-20T07:16:03;1.88;;;1.10;;
65037;SDS011;51605;47.040;15.294;2022-09-20T07:18:30;1.92;;;0.80;;
65037;SDS011;51605;47.040;15.294;2022-09-20T07:23:24;2.10;;;1.17;;
65037;SDS011;51605;47.040;15.294;2022-09-20T07:28:17;1.95;;;1.10;;
65037;SDS011;51605;47.040;15.294;2022-09-20T07:30:47;2.45;;;1.17;;
65037;SDS011;51605;47.040;15.294;2022-09-20T07:33:14;2.05;;;1.00;;
65037;SDS011;51605;47.040;15.294;2022-09-20T07:35:46;1.90;;;1.10;;
65037;SDS011;51605;47.040;15.294;2022-09-20T07:38:12;1.67;;;0.80;;
65037;SDS011;51605;47.040;15.294;2022-09-20T07:40:39;2.47;;;1.15;;
65037;SDS011;51605;47.040;15.294;2022-09-20T07:43:05;3.75;;;1.33;;
65037;SDS011;51605;47.040;15.294;2022-09-20T07:45:31;1.98;;;1.10;;
65037;SDS011;51605;47.040;15.294;2022-09-20T07:47:59;2.15;;;1.08;;
65037;SDS011;51605;47.040;15.294;2022-09-20T07:50:29;2.60;;;1.17;;
65037;SDS011;51605;47.040;15.294;2022-09-20T07:52:55;2.47;;;1.10;;
65037;SDS011;51605;47.040;15.294;2022-09-20T07:55:22;2.80;;;1.00;;
65037;SDS011;51605;47.040;15.294;2022-09-20T07:57:47;2.53;;;1.00;;
65037;SDS011;51605;47.040;15.294;2022-09-20T08:00:13;4.15;;;1.10;;
65037;SDS011;51605;47.040;15.294;2022-09-20T08:02:40;2.03;;;1.00;;
65037;SDS011;51605;47.040;15.294;2022-09-20T08:05:05;1.33;;;0.90;;
65037;SDS011;51605;47.040;15.294;2022-09-20T08:07:32;2.40;;;1.10;;
65037;SDS011;51605;47.040;15.294;2022-09-20T08:09:57;2.57;;;1.10;;
65037;SDS011;51605;47.040;15.294;2022-09-20T08:12:23;2.20;;;1.03;;
65037;SDS011;51605;47.040;15.294;2022-09-20T08:14:50;3.17;;;1.20;;
65037;SDS011;51605;47.040;15.294;2022-09-20T08:17:16;2.70;;;1.10;;
65037;SDS011;51605;47.040;15.294;2022-09-20T08:19:42;2.42;;;1.20;;
65037;SDS011;51605;47.040;15.294;2022-09-20T08:22:08;2.92;;;1.05;;
65037;SDS011;51605;47.040;15.294;2022-09-20T08:24:36;2.72;;;1.10;;
65037;SDS011;51605;47.040;15.294;2022-09-20T08:27:02;1.98;;;1.10;;
65037;SDS011;51605;47.040;15.294;2022-09-20T08:29:28;2.20;;;1.00;;
65037;SDS011;51605;47.040;15.294;2022-09-20T08:31:54;2.75;;;1.02;;
65037;SDS011;51605;47.040;15.294;2022-09-20T08:34:22;2.35;;;1.13;;
65037;SDS011;51605;47.040;15.294;2022-09-20T08:36:48;2.42;;;1.05;;
65037;SDS011;51605;47.040;15.294;2022-09-20T08:39:17;1.83;;;1.17;;
65037;SDS011;51605;47.040;15.294;2022-09-20T08:41:47;2.40;;;1.00;;
65037;SDS011;51605;47.040;15.294;2022-09-20T08:44:30;2.67;;;1.20;;
65037;SDS011;51605;47.040;15.294;2022-09-20T08:47:07;1.98;;;0.90;;
65037;SDS011;51605;47.040;15.294;2022-09-20T08:49:46;3.65;;;1.15;;
65037;SDS011;51605;47.040;15.294;2022-09-20T08:54:47;2.45;;;1.10;;
65037;SDS011;51605;47.040;15.294;2022-09-20T08:57:16;1.55;;;1.08;;
65037;SDS011;51605;47.040;15.294;2022-09-20T08:59:44;1.77;;;1.00;;
65037;SDS011;51605;47.040;15.294;2022-09-20T09:02:14;3.00;;;1.10;;
65037;SDS011;51605;47.040;15.294;2022-09-20T09:04:42;3.40;;;1.00;;
65037;SDS011;51605;47.040;15.294;2022-09-20T09:07:09;2.83;;;1.00;;
65037;SDS011;51605;47.040;15.294;2022-09-20T09:09:38;2.30;;;1.10;;
65037;SDS011;51605;47.040;15.294;2022-09-20T09:12:41;2.15;;;1.00;;
65037;SDS011;51605;47.040;15.294;2022-09-20T09:15:03;2.10;;;1.00;;
65037;SDS011;51605;47.040;15.294;2022-09-20T09:17:46;1.55;;;0.90;;
65037;SDS011;51605;47.040;15.294;2022-09-20T09:22:42;3.75;;;1.02;;
65037;SDS011;51605;47.040;15.294;2022-09-20T09:30:33;1.15;;;0.82;;
65037;SDS011;51605;47.040;15.294;2022-09-20T09:35:38;1.05;;;0.77;;
65037;SDS011;51605;47.040;15.294;2022-09-20T09:38:04;1.48;;;0.90;;
65037;SDS011;51605;47.040;15.294;2022-09-20T09:40:39;2.22;;;1.10;;
65037;SDS011;51605;47.040;15.294;2022-09-20T09:43:19;2.55;;;0.90;;
65037;SDS011;51605;47.040;15.294;2022-09-20T09:45:52;1.75;;;1.00;;
65037;SDS011;51605;47.040;15.294;2022-09-20T09:48:26;1.90;;;1.10;;
65037;SDS011;51605;47.040;15.294;2022-09-20T09:53:33;2.10;;;0.90;;
65037;SDS011;51605;47.040;15.294;2022-09-20T09:58:53;1.58;;;0.98;;
65037;SDS011;51605;47.040;15.294;2022-09-20T10:04:51;1.70;;;0.90;;
65037;SDS011;51605;47.040;15.294;2022-09-20T10:24:31;1.17;;;0.80;;
65037;SDS011;51605;47.040;15.294;2022-09-20T10:35:21;2.17;;;0.93;;
65037;SDS011;51605;47.040;15.294;2022-09-20T10:44:04;1.83;;;0.90;;
65037;SDS011;51605;47.040;15.294;2022-09-20T10:49:27;1.40;;;0.82;;
65037;SDS011;51605;47.040;15.294;2022-09-20T10:54:44;2.40;;;0.90;;
65037;SDS011;51605;47.040;15.294;2022-09-20T11:05:42;1.15;;;0.80;;
65037;SDS011;51605;47.040;15.294;2022-09-20T11:08:21;2.75;;;0.90;;
65037;SDS011;51605;47.040;15.294;2022-09-20T11:13:23;1.55;;;0.82;;
65037;SDS011;51605;47.040;15.294;2022-09-20T11:16:11;1.48;;;0.93;;
65037;SDS011;51605;47.040;15.294;2022-09-20T11:18:59;2.00;;;0.90;;
65037;SDS011;51605;47.040;15.294;2022-09-20T11:21:37;2.25;;;0.95;;
65037;SDS011;51605;47.040;15.294;2022-09-20T11:26:56;2.30;;;1.13;;
65037;SDS011;51605;47.040;15.294;2022-09-20T11:32:37;2.17;;;1.13;;
65037;SDS011;51605;47.040;15.294;2022-09-20T11:38:11;2.38;;;1.10;;
65037;SDS011;51605;47.040;15.294;2022-09-20T11:41:04;1.58;;;1.00;;
65037;SDS011;51605;47.040;15.294;2022-09-20T11:43:45;3.47;;;1.20;;
65037;SDS011;51605;47.040;15.294;2022-09-20T11:46:12;2.53;;;1.25;;
65037;SDS011;51605;47.040;15.294;2022-09-20T11:48:50;2.88;;;1.30;;
65037;SDS011;51605;47.040;15.294;2022-09-20T11:57:19;4.03;;;1.55;;
65037;SDS011;51605;47.040;15.294;2022-09-20T11:59:50;3.85;;;1.60;;
65037;SDS011;51605;47.040;15.294;2022-09-20T12:04:51;4.32;;;1.70;;
65037;SDS011;51605;47.040;15.294;2022-09-20T12:09:53;5.20;;;1.63;;
65037;SDS011;51605;47.040;15.294;2022-09-20T12:25:59;6.78;;;2.50;;
65037;SDS011;51605;47.040;15.294;2022-09-20T12:28:35;7.47;;;2.80;;
65037;SDS011;51605;47.040;15.294;2022-09-20T12:33:59;7.78;;;2.80;;
65037;SDS011;51605;47.040;15.294;2022-09-20T12:36:36;13.18;;;3.47;;
65037;SDS011;51605;47.040;15.294;2022-09-20T12:47:04;10.25;;;3.42;;
65037;SDS011;51605;47.040;15.294;2022-09-20T12:52:37;11.90;;;3.30;;
65037;SDS011;51605;47.040;15.294;2022-09-20T13:01:38;12.60;;;3.90;;
65037;SDS011;51605;47.040;15.294;2022-09-20T13:03:39;10.85;;;3.90;;
65037;SDS011;51605;47.040;15.294;2022-09-20T13:22:02;8.27;;;3.42;;
65037;SDS011;51605;47.040;15.294;2022-09-20T13:24:46;9.57;;;3.60;;
65037;SDS011;51605;47.040;15.294;2022-09-20T13:27:18;9.98;;;3.45;;
65037;SDS011;51605;47.040;15.294;2022-09-20T13:29:47;12.10;;;3.30;;
65037;SDS011;51605;47.040;15.294;2022-09-20T13:32:13;8.52;;;3.60;;
65037;SDS011;51605;47.040;15.294;2022-09-20T13:34:53;11.35;;;3.42;;
65037;SDS011;51605;47.040;15.294;2022-09-20T13:37:46;8.43;;;3.17;;
65037;SDS011;51605;47.040;15.294;2022-09-20T13:40:32;7.95;;;3.20;;
65037;SDS011;51605;47.040;15.294;2022-09-20T13:43:02;9.20;;;3.40;;
65037;SDS011;51605;47.040;15.294;2022-09-20T13:45:45;8.95;;;3.25;;
65037;SDS011;51605;47.040;15.294;2022-09-20T13:48:14;8.68;;;3.22;;
65037;SDS011;51605;47.040;15.294;2022-09-20T13:50:40;8.10;;;3.25;;
65037;SDS011;51605;47.040;15.294;2022-09-20T13:53:13;10.00;;;3.70;;
65037;SDS011;51605;47.040;15.294;2022-09-20T13:55:41;9.30;;;3.50;;
65037;SDS011;51605;47.040;15.294;2022-09-20T14:00:34;8.15;;;3.25;;
65037;SDS011;51605;47.040;15.294;2022-09-20T14:03:02;7.63;;;3.03;;
65037;SDS011;51605;47.040;15.294;2022-09-20T14:05:29;8.80;;;3.20;;
65037;SDS011;51605;47.040;15.294;2022-09-20T14:10:33;7.30;;;2.92;;
65037;SDS011;51605;47.040;15.294;2022-09-20T14:13:07;13.77;;;4.22;;
65037;SDS011;51605;47.040;15.294;2022-09-20T14:15:40;10.45;;;3.22;;
65037;SDS011;51605;47.040;15.294;2022-09-20T14:18:13;9.73;;;3.00;;
65037;SDS011;51605;47.040;15.294;2022-09-20T14:20:42;7.93;;;2.95;;
65037;SDS011;51605;47.040;15.294;2022-09-20T14:23:23;7.35;;;3.17;;
65037;SDS011;51605;47.040;15.294;2022-09-20T14:26:06;8.60;;;2.92;;
65037;SDS011;51605;47.040;15.294;2022-09-20T14:28:45;8.95;;;3.20;;
65037;SDS011;51605;47.040;15.294;2022-09-20T14:33:52;7.65;;;3.42;;
65037;SDS011;51605;47.040;15.294;2022-09-20T14:36:21;8.77;;;3.22;;
65037;SDS011;51605;47.040;15.294;2022-09-20T14:38:52;9.00;;;3.10;;
65037;SDS011;51605;47.040;15.294;2022-09-20T14:41:31;8.95;;;3.20;;
65037;SDS011;51605;47.040;15.294;2022-09-20T14:44:00;9.43;;;3.10;;
65037;SDS011;51605;47.040;15.294;2022-09-20T14:46:28;7.63;;;3.25;;
65037;SDS011;51605;47.040;15.294;2022-09-20T14:51:50;6.10;;;3.57;;
65037;SDS011;51605;47.040;15.294;2022-09-20T14:56:54;6.78;;;2.78;;
65037;SDS011;51605;47.040;15.294;2022-09-20T14:59:43;8.90;;;3.15;;
65037;SDS011;51605;47.040;15.294;2022-09-20T15:04:39;9.20;;;3.10;;
65037;SDS011;51605;47.040;15.294;2022-09-20T15:07:07;6.68;;;2.90;;
65037;SDS011;51605;47.040;15.294;2022-09-20T15:09:37;7.22;;;3.00;;
65037;SDS011;51605;47.040;15.294;2022-09-20T15:12:10;8.10;;;3.20;;
65037;SDS011;51605;47.040;15.294;2022-09-20T15:14:38;9.52;;;3.00;;
65037;SDS011;51605;47.040;15.294;2022-09-20T15:17:08;6.32;;;2.85;;
65037;SDS011;51605;47.040;15.294;2022-09-20T15:19:37;6.85;;;2.90;;
65037;SDS011;51605;47.040;15.294;2022-09-20T15:22:03;6.28;;;2.85;;
65037;SDS011;51605;47.040;15.294;2022-09-20T15:24:29;8.30;;;2.80;;
65037;SDS011;51605;47.040;15.294;2022-09-20T15:26:54;6.45;;;2.72;;
65037;SDS011;51605;47.040;15.294;2022-09-20T15:29:20;6.80;;;2.77;;
65037;SDS011;51605;47.040;15.294;2022-09-20T15:31:46;6.10;;;2.70;;
65037;SDS011;51605;47.040;15.294;2022-09-20T15:34:12;7.20;;;3.20;;
65037;SDS011;51605;47.040;15.294;2022-09-20T15:36:39;7.43;;;3.30;;
65037;SDS011;51605;47.040;15.294;2022-09-20T15:39:05;8.10;;;3.13;;
65037;SDS011;51605;47.040;15.294;2022-09-20T15:41:31;8.05;;;3.05;;
65037;SDS011;51605;47.040;15.294;2022-09-20T15:43:57;8.43;;;3.42;;
65037;SDS011;51605;47.040;15.294;2022-09-20T15:46:23;5.60;;;3.10;;
65037;SDS011;51605;47.040;15.294;2022-09-20T15:48:51;6.53;;;2.65;;
65037;SDS011;51605;47.040;15.294;2022-09-20T15:51:17;6.20;;;2.90;;
65037;SDS011;51605;47.040;15.294;2022-09-20T15:53:44;6.40;;;2.60;;
65037;SDS011;51605;47.040;15.294;2022-09-20T15:56:46;7.28;;;2.80;;
65037;SDS011;51605;47.040;15.294;2022-09-20T15:59:06;6.40;;;2.63;;
65037;SDS011;51605;47.040;15.294;2022-09-20T16:01:34;5.22;;;2.65;;
65037;SDS011;51605;47.040;15.294;2022-09-20T16:04:04;7.05;;;2.80;;
65037;SDS011;51605;47.040;15.294;2022-09-20T16:06:34;6.50;;;2.78;;
65037;SDS011;51605;47.040;15.294;2022-09-20T16:09:01;6.70;;;2.72;;
65037;SDS011;51605;47.040;15.294;2022-09-20T16:11:27;7.13;;;2.53;;
65037;SDS011;51605;47.040;15.294;2022-09-20T16:13:53;6.53;;;2.67;;
65037;SDS011;51605;47.040;15.294;2022-09-20T16:16:20;6.88;;;2.58;;
65037;SDS011;51605;47.040;15.294;2022-09-20T16:18:47;5.00;;;2.60;;
65037;SDS011;51605;47.040;15.294;2022-09-20T16:21:31;5.63;;;2.80;;
65037;SDS011;51605;47.040;15.294;2022-09-20T16:23:57;6.55;;;2.65;;
65037;SDS011;51605;47.040;15.294;2022-09-20T16:26:25;6.05;;;2.60;;
65037;SDS011;51605;47.040;15.294;2022-09-20T16:28:52;6.35;;;3.17;;
65037;SDS011;51605;47.040;15.294;2022-09-20T16:34:04;6.60;;;2.60;;
65037;SDS011;51605;47.040;15.294;2022-09-20T16:36:36;5.78;;;2.53;;
65037;SDS011;51605;47.040;15.294;2022-09-20T16:39:02;6.78;;;2.50;;
65037;SDS011;51605;47.040;15.294;2022-09-20T16:41:28;3.88;;;2.10;;
65037;SDS011;51605;47.040;15.294;2022-09-20T16:43:55;5.00;;;2.10;;
65037;SDS011;51605;47.040;15.294;2022-09-20T16:46:21;5.65;;;2.20;;
65037;SDS011;51605;47.040;15.294;2022-09-20T16:48:51;6.95;;;2.50;;
65037;SDS011;51605;47.040;15.294;2022-09-20T16:53:45;5.93;;;2.40;;
65037;SDS011;51605;47.040;15.294;2022-09-20T16:56:16;4.70;;;2.15;;
65037;SDS011;51605;47.040;15.294;2022-09-20T16:58:42;4.80;;;2.22;;
65037;SDS011;51605;47.040;15.294;2022-09-20T17:01:08;5.82;;;2.47;;
65037;SDS011;51605;47.040;15.294;2022-09-20T17:06:04;6.00;;;2.47;;
65037;SDS011;51605;47.040;15.294;2022-09-20T17:08:30;4.90;;;2.50;;
65037;SDS011;51605;47.040;15.294;2022-09-20T17:11:03;5.85;;;2.30;;
65037;SDS011;51605;47.040;15.294;2022-09-20T17:13:35;4.45;;;2.30;;
65037;SDS011;51605;47.040;15.294;2022-09-20T17:16:04;6.10;;;2.58;;
65037;SDS011;51605;47.040;15.294;2022-09-20T17:18:31;4.40;;;2.25;;
65037;SDS011;51605;47.040;15.294;2022-09-20T17:21:02;5.18;;;2.22;;
65037;SDS011;51605;47.040;15.294;2022-09-20T17:23:31;4.50;;;2.20;;
65037;SDS011;51605;47.040;15.294;2022-09-20T17:26:01;5.22;;;2.55;;
65037;SDS011;51605;47.040;15.294;2022-09-20T17:28:32;5.45;;;2.40;;
65037;SDS011;51605;47.040;15.294;2022-09-20T17:31:02;5.78;;;2.20;;
65037;SDS011;51605;47.040;15.294;2022-09-20T17:35:57;4.50;;;2.20;;
65037;SDS011;51605;47.040;15.294;2022-09-20T17:38:27;6.57;;;2.20;;
65037;SDS011;51605;47.040;15.294;2022-09-20T17:43:54;5.72;;;2.33;;
65037;SDS011;51605;47.040;15.294;2022-09-20T17:46:22;3.95;;;2.15;;
65037;SDS011;51605;47.040;15.294;2022-09-20T17:48:54;6.00;;;2.03;;
65037;SDS011;51605;47.040;15.294;2022-09-20T17:51:24;4.70;;;2.05;;
65037;SDS011;51605;47.040;15.294;2022-09-20T17:53:52;4.47;;;2.30;;
65037;SDS011;51605;47.040;15.294;2022-09-20T17:56:20;5.57;;;2.30;;
65037;SDS011;51605;47.040;15.294;2022-09-20T17:58:48;3.97;;;2.00;;
65037;SDS011;51605;47.040;15.294;2022-09-20T18:01:15;3.60;;;1.95;;
65037;SDS011;51605;47.040;15.294;2022-09-20T18:03:45;4.75;;;2.10;;
65037;SDS011;51605;47.040;15.294;2022-09-20T18:06:22;4.68;;;2.00;;
65037;SDS011;51605;47.040;15.294;2022-09-20T18:08:55;4.30;;;2.00;;
65037;SDS011;51605;47.040;15.294;2022-09-20T18:11:23;3.33;;;1.90;;
65037;SDS011;51605;47.040;15.294;2022-09-20T18:13:52;4.50;;;2.33;;
65037;SDS011;51605;47.040;15.294;2022-09-20T18:16:17;3.95;;;1.85;;
65037;SDS011;51605;47.040;15.294;2022-09-20T18:18:43;4.10;;;2.20;;
65037;SDS011;51605;47.040;15.294;2022-09-20T18:21:11;4.40;;;2.20;;
65037;SDS011;51605;47.040;15.294;2022-09-20T18:23:37;3.83;;;1.95;;
65037;SDS011;51605;47.040;15.294;2022-09-20T18:26:10;4.45;;;2.10;;
65037;SDS011;51605;47.040;15.294;2022-09-20T18:28:53;4.35;;;2.10;;
65037;SDS011;51605;47.040;15.294;2022-09-20T18:31:34;3.40;;;1.90;;
65037;SDS011;51605;47.040;15.294;2022-09-20T18:34:02;3.45;;;1.90;;
65037;SDS011;51605;47.040;15.294;2022-09-20T18:36:33;3.40;;;1.85;;
65037;SDS011;51605;47.040;15.294;2022-09-20T18:39:00;3.78;;;1.83;;
65037;SDS011;51605;47.040;15.294;2022-09-20T18:41:28;5.35;;;2.10;;
65037;SDS011;51605;47.040;15.294;2022-09-20T18:43:58;5.05;;;2.25;;
65037;SDS011;51605;47.040;15.294;2022-09-20T18:46:25;4.72;;;1.92;;
65037;SDS011;51605;47.040;15.294;2022-09-20T18:48:55;3.47;;;1.90;;
65037;SDS011;51605;47.040;15.294;2022-09-20T18:51:24;3.42;;;1.83;;
65037;SDS011;51605;47.040;15.294;2022-09-20T18:53:53;3.13;;;1.73;;
65037;SDS011;51605;47.040;15.294;2022-09-20T18:58:52;3.47;;;1.80;;
65037;SDS011;51605;47.040;15.294;2022-09-20T19:12:49;3.72;;;1.80;;
65037;SDS011;51605;47.040;15.294;2022-09-20T19:20:47;3.58;;;2.13;;
65037;SDS011;51605;47.040;15.294;2022-09-20T19:33:53;3.88;;;1.70;;
65037;SDS011;51605;47.040;15.294;2022-09-20T19:43:48;4.30;;;1.92;;
65037;SDS011;51605;47.040;15.294;2022-09-20T19:52:10;2.42;;;1.50;;
65037;SDS011;51605;47.040;15.294;2022-09-20T19:54:37;4.05;;;1.88;;
65037;SDS011;51605;47.040;15.294;2022-09-20T19:57:05;3.60;;;1.60;;
65037;SDS011;51605;47.040;15.294;2022-09-20T19:59:33;3.67;;;1.80;;
65037;SDS011;51605;47.040;15.294;2022-09-20T20:01:59;2.78;;;1.67;;
65037;SDS011;51605;47.040;15.294;2022-09-20T20:04:26;4.43;;;1.83;;
65037;SDS011;51605;47.040;15.294;2022-09-20T20:09:32;3.45;;;1.67;;
65037;SDS011;51605;47.040;15.294;2022-09-20T20:12:23;2.40;;;1.40;;
65037;SDS011;51605;47.040;15.294;2022-09-20T20:18:21;3.72;;;2.05;;
65037;SDS011;51605;47.040;15.294;2022-09-20T20:20:44;3.67;;;1.52;;
65037;SDS011;51605;47.040;15.294;2022-09-20T20:26:07;4.53;;;1.70;;
65037;SDS011;51605;47.040;15.294;2022-09-20T20:28:36;4.00;;;1.77;;
65037;SDS011;51605;47.040;15.294;2022-09-20T20:31:02;3.42;;;1.52;;
65037;SDS011;51605;47.040;15.294;2022-09-20T20:33:28;2.78;;;1.60;;
65037;SDS011;51605;47.040;15.294;2022-09-20T20:35:58;3.92;;;1.77;;
65037;SDS011;51605;47.040;15.294;2022-09-20T20:38:25;4.22;;;1.70;;
65037;SDS011;51605;47.040;15.294;2022-09-20T20:41:01;4.10;;;1.63;;
65037;SDS011;51605;47.040;15.294;2022-09-20T20:43:38;2.92;;;1.75;;
65037;SDS011;51605;47.040;15.294;2022-09-20T20:46:07;3.13;;;1.60;;
65037;SDS011;51605;47.040;15.294;2022-09-20T20:48:36;3.38;;;1.55;;
65037;SDS011;51605;47.040;15.294;2022-09-20T20:51:02;3.28;;;1.60;;
65037;SDS011;51605;47.040;15.294;2022-09-20T20:53:34;3.38;;;1.58;;
65037;SDS011;51605;47.040;15.294;2022-09-20T20:56:05;4.78;;;1.63;;
65037;SDS011;51605;47.040;15.294;2022-09-20T20:58:41;2.60;;;1.48;;
65037;SDS011;51605;47.040;15.294;2022-09-20T21:01:21;3.78;;;1.75;;
65037;SDS011;51605;47.040;15.294;2022-09-20T21:03:53;3.50;;;1.60;;
65037;SDS011;51605;47.040;15.294;2022-09-20T21:06:20;3.05;;;1.50;;
65037;SDS011;51605;47.040;15.294;2022-09-20T21:08:50;3.05;;;1.40;;
65037;SDS011;51605;47.040;15.294;2022-09-20T21:11:23;5.25;;;1.50;;
65037;SDS011;51605;47.040;15.294;2022-09-20T21:13:54;3.15;;;1.65;;
65037;SDS011;51605;47.040;15.294;2022-09-20T21:16:23;3.00;;;1.63;;
65037;SDS011;51605;47.040;15.294;2022-09-20T21:18:50;3.88;;;1.50;;
65037;SDS011;51605;47.040;15.294;2022-09-20T21:24:12;3.80;;;1.55;;
65037;SDS011;51605;47.040;15.294;2022-09-20T21:26:42;2.97;;;1.52;;
65037;SDS011;51605;47.040;15.294;2022-09-20T21:29:09;4.07;;;1.63;;
65037;SDS011;51605;47.040;15.294;2022-09-20T21:31:37;2.85;;;1.45;;
65037;SDS011;51605;47.040;15.294;2022-09-20T21:34:04;2.70;;;1.40;;
65037;SDS011;51605;47.040;15.294;2022-09-20T21:36:31;3.88;;;1.60;;
65037;SDS011;51605;47.040;15.294;2022-09-20T21:38:57;2.92;;;1.48;;
65037;SDS011;51605;47.040;15.294;2022-09-20T21:41:27;2.87;;;1.30;;
65037;SDS011;51605;47.040;15.294;2022-09-20T21:43:58;3.80;;;1.48;;
65037;SDS011;51605;47.040;15.294;2022-09-20T21:46:29;2.67;;;1.40;;
65037;SDS011;51605;47.040;15.294;2022-09-20T21:48:57;2.63;;;1.40;;
65037;SDS011;51605;47.040;15.294;2022-09-20T21:51:24;4.15;;;1.50;;
65037;SDS011;51605;47.040;15.294;2022-09-20T21:53:53;3.00;;;1.42;;
65037;SDS011;51605;47.040;15.294;2022-09-20T21:56:21;2.35;;;1.42;;
65037;SDS011;51605;47.040;15.294;2022-09-20T21:58:48;3.33;;;1.27;;
65037;SDS011;51605;47.040;15.294;2022-09-20T22:01:22;3.17;;;1.50;;
65037;SDS011;51605;47.040;15.294;2022-09-20T22:03:50;2.50;;;1.40;;
65037;SDS011;51605;47.040;15.294;2022-09-20T22:06:23;3.28;;;1.30;;
65037;SDS011;51605;47.040;15.294;2022-09-20T22:08:55;2.65;;;1.50;;
65037;SDS011;51605;47.040;15.294;2022-09-20T22:11:28;2.28;;;1.35;;
65037;SDS011;51605;47.040;15.294;2022-09-20T22:13:55;2.92;;;1.23;;
65037;SDS011;51605;47.040;15.294;2022-09-20T22:18:49;2.80;;;1.40;;